Time;durP1;ratioP1;P1;durP2;ratioP2;P2;SDS_P1;SDS_P2;PMS_P1;PMS_P2;Temp;Humidity;BMP_temperature;BMP_pressure;BME280_temperature;BME280_humidity;BME280_pressure;Samples;Min_cycle;Max_cycle;Signal;HPM_P1;HPM_P2
2022/04/29 00:00:30;;;;;;;15.50;8.75;;;6.50;93.00;;;;;;5017403;28;20033;-68
2022/04/29 00:02:56;;;;;;;17.20;9.30;;;6.40;93.10;;;;;;5035843;28;20025;-67
2022/04/29 00:05:24;;;;;;;13.27;8.63;;;6.40;93.20;;;;;;5042954;28;20033;-67
2022/04/29 00:07:50;;;;;;;11.38;8.20;;;6.20;93.80;;;;;;5037863;28;20330;-68
2022/04/29 00:10:19;;;;;;;13.45;8.07;;;6.10;94.40;;;;;;5039026;28;20044;-68
2022/04/29 00:12:48;;;;;;;12.57;8.82;;;6.10;94.70;;;;;;5038183;28;20160;-66
2022/04/29 00:15:18;;;;;;;14.15;8.88;;;6.00;94.60;;;;;;5043059;28;20029;-67
2022/04/29 00:17:44;;;;;;;15.00;9.18;;;5.90;95.20;;;;;;5046213;28;20026;-67
2022/04/29 00:20:10;;;;;;;11.02;8.27;;;5.80;95.40;;;;;;5035811;28;20036;-67
2022/04/29 00:22:37;;;;;;;11.60;8.63;;;5.70;95.80;;;;;;5042563;28;20079;-67
2022/04/29 00:25:04;;;;;;;14.57;9.77;;;5.60;96.00;;;;;;5039572;28;20049;-67
2022/04/29 00:27:30;;;;;;;12.60;9.40;;;5.60;96.30;;;;;;5050775;28;20030;-69
2022/04/29 00:29:56;;;;;;;13.95;8.95;;;5.40;96.50;;;;;;5043033;28;20477;-67
2022/04/29 00:32:22;;;;;;;12.73;8.77;;;5.30;96.90;;;;;;5048976;28;20151;-68
2022/04/29 00:34:51;;;;;;;17.17;11.45;;;5.30;97.00;;;;;;5043850;28;20129;-67
2022/04/29 00:37:18;;;;;;;14.70;10.15;;;5.30;97.00;;;;;;5039373;28;20107;-68
2022/04/29 00:39:44;;;;;;;13.98;10.02;;;5.30;96.90;;;;;;5043353;28;20029;-68
2022/04/29 00:42:14;;;;;;;12.77;9.45;;;5.20;96.90;;;;;;5052196;28;20029;-68
2022/04/29 00:44:41;;;;;;;12.35;9.40;;;5.10;97.10;;;;;;5039782;28;20026;-67
2022/04/29 00:47:10;;;;;;;14.88;10.57;;;5.20;97.10;;;;;;5039837;28;20021;-68
2022/04/29 00:49:36;;;;;;;15.63;10.07;;;5.30;96.60;;;;;;5046112;28;20100;-67
2022/04/29 00:52:05;;;;;;;15.13;9.63;;;5.40;96.40;;;;;;5038474;28;20033;-67
2022/04/29 00:54:34;;;;;;;14.75;9.88;;;5.50;96.30;;;;;;5026831;28;20032;-66
2022/04/29 00:57:01;;;;;;;14.85;10.82;;;5.40;96.40;;;;;;5051121;28;20025;-67
2022/04/29 00:59:42;;;;;;;15.10;10.13;;;5.30;96.50;;;;;;5034786;28;20045;-67
2022/04/29 01:02:09;;;;;;;13.35;10.05;;;5.30;96.60;;;;;;5025165;28;20036;-67
2022/04/29 01:04:44;;;;;;;14.18;9.63;;;5.10;96.80;;;;;;5037828;28;20040;-66
2022/04/29 01:07:10;;;;;;;14.80;10.05;;;5.10;97.00;;;;;;5044637;28;20446;-67
2022/04/29 01:09:35;;;;;;;14.27;10.40;;;4.90;97.00;;;;;;5043037;28;20021;-68
2022/04/29 01:12:02;;;;;;;12.73;9.63;;;4.90;97.30;;;;;;5034308;28;20036;-68
2022/04/29 01:14:27;;;;;;;13.80;10.50;;;5.00;97.50;;;;;;5045555;28;20029;-68
2022/04/29 01:16:57;;;;;;;14.50;10.60;;;5.00;97.50;;;;;;5047472;28;20029;-67
2022/04/29 01:19:23;;;;;;;16.15;10.52;;;5.10;97.40;;;;;;5044557;28;20028;-67
2022/04/29 01:21:51;;;;;;;15.85;11.15;;;5.00;97.50;;;;;;5041356;28;20029;-68
2022/04/29 01:24:16;;;;;;;14.90;11.13;;;5.00;97.40;;;;;;5039454;28;20029;-68
2022/04/29 01:26:42;;;;;;;14.52;10.32;;;4.90;97.40;;;;;;5047499;28;20036;-67
2022/04/29 01:29:08;;;;;;;15.05;10.30;;;4.90;97.50;;;;;;5047813;28;20033;-68
2022/04/29 01:31:35;;;;;;;15.65;10.15;;;4.70;97.50;;;;;;5048668;28;20076;-67
2022/04/29 01:34:01;;;;;;;13.35;9.13;;;4.70;97.70;;;;;;5041943;28;20099;-68
2022/04/29 01:36:28;;;;;;;15.63;10.95;;;4.70;97.60;;;;;;5046557;28;20096;-67
2022/04/29 01:38:53;;;;;;;16.90;10.98;;;4.60;97.70;;;;;;5024315;28;20341;-67
2022/04/29 01:41:19;;;;;;;13.82;10.10;;;4.60;97.80;;;;;;5043300;28;20037;-67
2022/04/29 01:43:46;;;;;;;13.68;10.57;;;4.60;97.80;;;;;;5046633;28;20036;-67
2022/04/29 01:46:12;;;;;;;14.38;10.70;;;4.50;97.80;;;;;;5043283;28;20344;-68
2022/04/29 01:48:38;;;;;;;14.82;10.00;;;4.60;98.00;;;;;;5046508;28;20095;-67
2022/04/29 01:51:06;;;;;;;15.50;11.07;;;4.60;97.70;;;;;;5027414;28;20033;-67
2022/04/29 01:53:33;;;;;;;15.13;11.40;;;4.60;97.90;;;;;;5050581;28;20306;-67
2022/04/29 01:55:59;;;;;;;15.30;10.88;;;4.60;97.80;;;;;;5049450;28;20432;-67
2022/04/29 01:58:24;;;;;;;17.08;11.25;;;4.60;97.90;;;;;;5042111;28;20056;-67
2022/04/29 02:00:50;;;;;;;15.55;10.95;;;4.60;97.80;;;;;;5043123;28;20029;-68
2022/04/29 02:03:16;;;;;;;15.93;10.25;;;4.60;97.90;;;;;;5042443;28;20025;-67
2022/04/29 02:05:42;;;;;;;15.93;10.27;;;4.50;97.80;;;;;;5052365;28;20052;-67
2022/04/29 02:08:09;;;;;;;16.33;11.27;;;4.50;98.00;;;;;;5048114;28;20032;-67
2022/04/29 02:10:35;;;;;;;18.02;11.85;;;4.70;97.70;;;;;;5024454;28;20028;-67
2022/04/29 02:13:01;;;;;;;15.07;10.95;;;4.70;97.70;;;;;;5044729;28;20022;-68
2022/04/29 02:15:27;;;;;;;15.10;10.85;;;4.70;97.60;;;;;;5037601;28;20021;-68
2022/04/29 02:17:55;;;;;;;17.63;11.65;;;4.80;97.70;;;;;;5044520;28;20021;-67
2022/04/29 02:20:21;;;;;;;15.02;10.13;;;4.90;97.40;;;;;;5041777;28;20025;-67
2022/04/29 02:22:47;;;;;;;15.38;10.40;;;5.10;96.60;;;;;;5042595;28;20033;-68
2022/04/29 02:25:13;;;;;;;14.70;10.90;;;5.30;96.00;;;;;;5043047;28;20037;-67
2022/04/29 02:27:39;;;;;;;13.32;9.55;;;5.20;96.20;;;;;;5023382;28;20029;-68
2022/04/29 02:30:05;;;;;;;14.18;10.00;;;5.10;96.70;;;;;;5042985;28;20032;-67
2022/04/29 02:32:32;;;;;;;15.18;10.43;;;5.10;96.90;;;;;;5047760;28;20017;-67
2022/04/29 02:34:58;;;;;;;16.95;10.20;;;5.00;97.00;;;;;;5040314;28;20025;-67
2022/04/29 02:37:24;;;;;;;15.23;10.45;;;5.00;97.10;;;;;;5027384;28;20047;-67
2022/04/29 02:39:50;;;;;;;13.00;9.60;;;5.00;97.30;;;;;;5047118;28;20414;-68
2022/04/29 02:42:15;;;;;;;16.27;10.52;;;4.90;97.30;;;;;;5045540;28;20057;-67
2022/04/29 02:44:41;;;;;;;15.10;10.98;;;4.80;97.50;;;;;;5043556;28;20028;-68
2022/04/29 02:47:07;;;;;;;18.00;12.25;;;4.60;97.50;;;;;;5027264;28;20071;-68
2022/04/29 02:49:33;;;;;;;14.88;9.93;;;4.60;97.60;;;;;;5022869;28;20060;-68
2022/04/29 02:51:59;;;;;;;14.57;10.60;;;4.60;97.60;;;;;;5033920;28;20036;-68
2022/04/29 02:54:24;;;;;;;15.27;11.07;;;4.60;97.70;;;;;;5044838;28;20033;-67
2022/04/29 02:56:51;;;;;;;17.15;10.90;;;4.50;97.70;;;;;;5052624;28;20456;-67
2022/04/29 02:59:20;;;;;;;14.98;11.27;;;4.50;97.80;;;;;;5052463;28;20147;-68
2022/04/29 03:01:46;;;;;;;15.48;10.57;;;4.60;97.80;;;;;;5049202;28;20577;-68
2022/04/29 03:04:12;;;;;;;15.73;11.80;;;4.50;97.90;;;;;;5054639;28;20060;-67
2022/04/29 03:06:40;;;;;;;16.17;10.82;;;4.50;97.90;;;;;;5053408;28;20107;-69
2022/04/29 03:09:06;;;;;;;16.05;10.13;;;4.60;97.70;;;;;;5052298;28;20327;-67
2022/04/29 03:11:32;;;;;;;15.23;10.82;;;4.60;97.50;;;;;;5053902;28;20026;-67
2022/04/29 03:13:57;;;;;;;14.43;10.27;;;4.60;97.50;;;;;;5053254;28;20021;-67
2022/04/29 03:16:23;;;;;;;15.05;10.30;;;4.60;97.40;;;;;;5053793;28;20033;-66
2022/04/29 03:18:49;;;;;;;15.07;11.20;;;4.60;97.40;;;;;;5053343;28;20043;-66
2022/04/29 03:21:15;;;;;;;14.68;10.50;;;4.60;97.50;;;;;;5054391;28;20029;-69
2022/04/29 03:23:41;;;;;;;15.15;10.40;;;4.50;97.50;;;;;;5050711;28;20116;-68
2022/04/29 03:26:07;;;;;;;14.90;10.27;;;4.50;97.80;;;;;;5053802;28;20100;-68
2022/04/29 03:28:36;;;;;;;19.08;11.45;;;4.40;97.80;;;;;;5054233;28;20063;-69
2022/04/29 03:31:02;;;;;;;14.95;9.82;;;4.30;97.90;;;;;;5049747;28;20025;-68
2022/04/29 03:33:28;;;;;;;16.38;11.65;;;4.20;97.90;;;;;;5052357;28;20024;-68
2022/04/29 03:35:54;;;;;;;16.98;10.85;;;4.20;98.00;;;;;;5053530;28;20325;-68
2022/04/29 03:38:20;;;;;;;16.48;10.85;;;4.30;98.00;;;;;;5052978;28;20017;-69
2022/04/29 03:40:45;;;;;;;17.00;11.45;;;4.40;98.00;;;;;;5055003;28;20386;-67
2022/04/29 03:43:13;;;;;;;17.17;11.18;;;4.40;98.00;;;;;;5051884;28;20118;-68
2022/04/29 03:45:39;;;;;;;16.08;10.63;;;4.50;97.80;;;;;;5048922;28;20021;-68
2022/04/29 03:48:05;;;;;;;16.02;11.15;;;4.50;97.70;;;;;;5035184;28;20031;-68
2022/04/29 03:50:31;;;;;;;15.68;10.23;;;4.40;97.80;;;;;;5035081;28;20330;-68
2022/04/29 03:53:03;;;;;;;17.95;10.90;;;4.30;97.80;;;;;;5049627;28;20024;-67
2022/04/29 03:55:30;;;;;;;17.90;11.55;;;4.10;97.90;;;;;;5050320;28;20025;-68
2022/04/29 03:57:57;;;;;;;14.35;10.25;;;4.30;98.00;;;;;;5050440;28;20048;-68
2022/04/29 04:00:24;;;;;;;16.00;10.60;;;4.50;97.70;;;;;;5046735;28;20037;-68
2022/04/29 04:02:52;;;;;;;16.23;10.85;;;4.70;97.20;;;;;;5053992;28;20470;-68
2022/04/29 04:05:18;;;;;;;15.73;10.57;;;4.70;96.80;;;;;;5049212;28;20082;-68
2022/04/29 04:07:45;;;;;;;17.20;10.50;;;4.80;96.60;;;;;;5051665;28;20025;-68
2022/04/29 04:10:12;;;;;;;15.48;9.95;;;4.80;96.50;;;;;;5052218;28;20052;-68
2022/04/29 04:12:43;;;;;;;15.85;11.10;;;4.80;96.20;;;;;;5051559;28;20021;-69
2022/04/29 04:15:11;;;;;;;14.43;10.27;;;5.00;95.90;;;;;;5049985;28;20052;-68
2022/04/29 04:17:37;;;;;;;14.80;10.10;;;5.10;95.60;;;;;;5051788;28;20306;-67
2022/04/29 04:20:05;;;;;;;15.43;10.48;;;5.10;95.30;;;;;;5047309;28;20369;-68
2022/04/29 04:22:32;;;;;;;13.63;9.48;;;5.10;95.30;;;;;;5052800;28;20044;-69
2022/04/29 04:24:59;;;;;;;13.98;9.63;;;5.20;95.20;;;;;;5048204;28;20175;-67
2022/04/29 04:27:25;;;;;;;15.40;9.73;;;5.30;94.80;;;;;;5049116;28;20058;-68
2022/04/29 04:29:50;;;;;;;12.68;9.15;;;5.30;94.90;;;;;;5049526;28;20059;-68
2022/04/29 04:32:16;;;;;;;15.10;10.30;;;5.30;94.90;;;;;;5049454;28;20075;-67
2022/04/29 04:34:51;;;;;;;13.20;9.45;;;5.40;94.60;;;;;;5052254;28;20052;-68
2022/04/29 04:37:20;;;;;;;14.27;9.00;;;5.40;94.60;;;;;;5050791;28;20418;-68
2022/04/29 04:39:47;;;;;;;15.30;9.13;;;5.40;94.70;;;;;;5052037;28;20017;-68
2022/04/29 04:42:13;;;;;;;15.52;10.43;;;5.40;94.90;;;;;;5054237;28;20426;-68
2022/04/29 04:44:41;;;;;;;13.23;9.10;;;5.30;95.10;;;;;;5034616;28;20052;-68
2022/04/29 04:47:08;;;;;;;13.40;8.90;;;5.40;95.10;;;;;;5048860;28;20040;-67
2022/04/29 04:49:34;;;;;;;13.02;9.02;;;5.30;95.50;;;;;;5035181;28;20027;-68
2022/04/29 04:52:00;;;;;;;13.07;9.02;;;5.30;95.90;;;;;;5053293;28;20370;-67
2022/04/29 04:54:26;;;;;;;12.02;9.20;;;5.40;96.00;;;;;;5050964;28;20100;-68
2022/04/29 04:56:52;;;;;;;13.38;9.07;;;5.40;96.20;;;;;;5053945;28;20025;-68
2022/04/29 04:59:17;;;;;;;17.10;10.52;;;5.50;96.30;;;;;;5052496;28;20069;-68
2022/04/29 05:01:46;;;;;;;14.27;9.07;;;5.60;96.10;;;;;;5061762;28;20040;-68
2022/04/29 05:04:11;;;;;;;13.55;9.38;;;5.70;96.00;;;;;;5052159;28;20037;-68
2022/04/29 05:06:37;;;;;;;15.38;8.70;;;5.90;95.30;;;;;;5057186;28;20083;-69
2022/04/29 05:09:04;;;;;;;13.82;9.43;;;6.10;94.70;;;;;;5057188;28;20432;-68
2022/04/29 05:11:30;;;;;;;15.35;9.60;;;6.20;94.40;;;;;;5038479;28;20032;-68
2022/04/29 05:13:57;;;;;;;12.40;8.70;;;6.30;94.80;;;;;;5054579;28;20021;-68
2022/04/29 05:16:23;;;;;;;12.27;8.50;;;6.50;94.20;;;;;;5056993;28;20467;-68
2022/04/29 05:18:49;;;;;;;11.73;8.50;;;6.70;92.90;;;;;;5058627;28;20377;-67
2022/04/29 05:21:14;;;;;;;11.02;7.97;;;6.90;93.00;;;;;;5054454;28;20124;-68
2022/04/29 05:23:40;;;;;;;11.77;8.27;;;7.10;93.40;;;;;;5056830;28;20056;-68
2022/04/29 05:26:06;;;;;;;11.05;7.68;;;7.30;93.20;;;;;;5056874;28;20418;-68
2022/04/29 05:28:31;;;;;;;11.98;7.50;;;7.50;93.00;;;;;;5057046;28;20064;-68
2022/04/29 05:30:58;;;;;;;13.43;8.48;;;7.70;92.90;;;;;;5049749;28;20071;-68
2022/04/29 05:33:24;;;;;;;12.20;7.30;;;7.80;93.10;;;;;;5055866;28;20021;-68
2022/04/29 05:35:50;;;;;;;11.60;8.73;;;7.90;92.20;;;;;;5059072;28;20017;-68
2022/04/29 05:38:16;;;;;;;18.50;14.70;;;8.20;92.10;;;;;;5058214;28;20326;-68
2022/04/29 05:43:27;;;;;;;28.80;22.08;;;8.40;90.00;;;;;;5050084;28;20047;-68
2022/04/29 05:45:54;;;;;;;23.98;16.77;;;8.50;89.00;;;;;;5052249;28;20032;-68
2022/04/29 05:48:20;;;;;;;25.83;16.58;;;8.50;88.40;;;;;;5052992;28;20041;-67
2022/04/29 05:50:49;;;;;;;27.60;16.98;;;8.60;88.10;;;;;;5054331;28;20152;-68
2022/04/29 05:53:17;;;;;;;21.42;13.70;;;8.80;87.70;;;;;;5056130;28;20096;-69
2022/04/29 05:55:43;;;;;;;20.27;13.43;;;9.10;87.30;;;;;;5054555;28;20495;-68
2022/04/29 05:58:14;;;;;;;17.50;12.18;;;9.20;87.20;;;;;;5054808;28;20033;-68
2022/04/29 06:00:43;;;;;;;19.38;12.45;;;9.50;87.00;;;;;;5048301;28;20061;-68
2022/04/29 06:03:09;;;;;;;26.35;15.90;;;9.60;86.00;;;;;;5050564;28;20029;-67
2022/04/29 06:05:37;;;;;;;21.83;13.77;;;9.70;85.90;;;;;;5052213;28;20028;-68
2022/04/29 06:08:03;;;;;;;18.35;12.52;;;9.60;86.10;;;;;;5054336;28;20357;-67
2022/04/29 06:10:29;;;;;;;19.27;12.27;;;9.70;86.10;;;;;;5056969;28;20063;-67
2022/04/29 06:12:54;;;;;;;17.17;12.13;;;9.70;84.90;;;;;;5054197;28;20017;-67
2022/04/29 06:15:20;;;;;;;17.27;12.63;;;9.80;84.00;;;;;;5052386;28;20108;-68
2022/04/29 06:17:51;;;;;;;16.17;10.43;;;9.90;84.90;;;;;;5055591;28;20028;-69
2022/04/29 06:20:17;;;;;;;16.38;9.85;;;9.90;84.50;;;;;;5053221;28;20028;-68
2022/04/29 06:22:46;;;;;;;15.35;9.00;;;10.10;85.20;;;;;;5056419;28;20043;-69
2022/04/29 06:25:20;;;;;;;15.00;9.65;;;10.30;85.70;;;;;;5056915;28;20036;-69
2022/04/29 06:27:46;;;;;;;14.35;9.52;;;10.50;84.90;;;;;;5052411;28;20029;-69
2022/04/29 06:30:15;;;;;;;15.05;9.55;;;10.70;84.00;;;;;;5053738;28;20453;-68
2022/04/29 06:32:43;;;;;;;12.63;9.25;;;10.70;84.40;;;;;;5055730;28;20409;-69
2022/04/29 06:35:09;;;;;;;13.45;10.07;;;10.80;84.80;;;;;;5054744;28;20017;-69
2022/04/29 06:37:38;;;;;;;15.20;10.82;;;10.90;82.90;;;;;;5055059;28;20469;-68
2022/04/29 06:40:04;;;;;;;14.80;10.40;;;11.00;85.10;;;;;;5054689;28;20427;-68
2022/04/29 06:42:42;;;;;;;13.55;9.65;;;11.00;85.40;;;;;;5055405;28;20036;-67
2022/04/29 06:45:08;;;;;;;15.25;10.30;;;11.00;86.00;;;;;;5053276;28;20025;-68
2022/04/29 06:47:34;;;;;;;12.98;8.43;;;11.10;85.50;;;;;;5055183;28;20032;-68
2022/04/29 06:49:59;;;;;;;11.02;8.55;;;11.10;85.30;;;;;;5054819;28;20021;-68
2022/04/29 06:52:25;;;;;;;13.80;9.75;;;11.00;86.30;;;;;;5055234;28;20414;-69
2022/04/29 06:54:51;;;;;;;15.63;10.57;;;11.10;86.10;;;;;;5050840;28;20053;-67
2022/04/29 06:57:16;;;;;;;12.80;9.13;;;11.30;85.50;;;;;;5051782;28;20024;-68
2022/04/29 06:59:45;;;;;;;16.20;11.23;;;11.30;84.90;;;;;;5052624;28;20037;-68
2022/04/29 07:02:11;;;;;;;16.17;11.35;;;11.20;84.80;;;;;;5053021;28;20025;-68
2022/04/29 07:04:38;;;;;;;13.20;10.45;;;11.00;85.80;;;;;;5054188;28;20021;-68
2022/04/29 07:07:05;;;;;;;14.27;9.52;;;10.80;86.00;;;;;;5054142;28;20021;-68
2022/04/29 07:09:31;;;;;;;13.48;9.45;;;10.80;86.60;;;;;;5037428;28;20053;-68
2022/04/29 07:11:56;;;;;;;12.15;8.77;;;11.00;86.70;;;;;;5054556;28;20056;-68
2022/04/29 07:14:22;;;;;;;17.40;11.95;;;11.30;86.40;;;;;;5054647;28;20021;-68
2022/04/29 07:16:49;;;;;;;17.70;13.50;;;11.60;85.60;;;;;;5052509;28;20056;-68
2022/04/29 07:19:15;;;;;;;13.48;10.60;;;11.70;85.00;;;;;;5054295;28;20025;-68
2022/04/29 07:21:41;;;;;;;14.27;9.93;;;11.80;85.40;;;;;;5036094;28;20033;-69
2022/04/29 07:24:07;;;;;;;15.25;9.70;;;11.90;84.80;;;;;;5051801;28;20033;-68
2022/04/29 07:26:37;;;;;;;18.00;10.80;;;11.90;84.70;;;;;;5053477;28;20021;-67
2022/04/29 07:29:06;;;;;;;13.55;10.25;;;11.90;84.50;;;;;;5053559;28;20121;-67
2022/04/29 07:31:32;;;;;;;13.00;10.38;;;12.10;85.00;;;;;;5054736;28;20021;-69
2022/04/29 07:33:58;;;;;;;16.83;9.88;;;12.50;83.10;;;;;;5056035;28;20059;-68
2022/04/29 07:41:52;;;;;;;10.30;6.57;;;13.40;78.40;;;;;;5051661;28;20044;-68
2022/04/29 07:44:19;;;;;;;8.70;6.15;;;13.70;72.20;;;;;;5053130;28;20732;-68
2022/04/29 07:46:49;;;;;;;10.98;5.88;;;14.30;69.40;;;;;;5053577;28;20112;-69
2022/04/29 07:49:15;;;;;;;9.25;5.57;;;15.00;68.00;;;;;;5054081;28;20028;-67
2022/04/29 07:51:42;;;;;;;9.32;5.38;;;15.60;65.40;;;;;;5074022;28;20044;-68
2022/04/29 07:54:08;;;;;;;7.50;5.18;;;16.40;63.60;;;;;;5054557;28;20055;-68
2022/04/29 07:56:34;;;;;;;7.80;4.72;;;16.90;60.70;;;;;;5054610;28;20025;-67
2022/04/29 07:58:59;;;;;;;9.25;4.70;;;17.30;61.10;;;;;;5052175;28;20107;-67
2022/04/29 08:01:26;;;;;;;6.65;4.60;;;17.50;60.00;;;;;;5052815;28;20406;-69
2022/04/29 08:03:54;;;;;;;7.65;4.40;;;17.80;58.20;;;;;;5052948;28;20049;-68
2022/04/29 08:06:20;;;;;;;7.55;4.57;;;18.00;57.80;;;;;;5049853;28;20045;-68
2022/04/29 08:08:46;;;;;;;10.00;4.35;;;18.40;57.70;;;;;;5036783;28;20407;-68
2022/04/29 08:11:12;;;;;;;8.43;4.55;;;18.10;55.70;;;;;;5055476;28;20040;-67
2022/04/29 08:13:38;;;;;;;7.32;4.43;;;17.70;56.20;;;;;;5053473;28;20024;-68
2022/04/29 08:16:07;;;;;;;8.15;4.38;;;17.20;57.10;;;;;;5046827;28;20017;-67
2022/04/29 08:18:33;;;;;;;6.10;4.10;;;17.50;57.30;;;;;;5054872;28;20017;-67
2022/04/29 08:20:58;;;;;;;9.60;4.78;;;17.30;57.40;;;;;;5053818;28;20051;-68
2022/04/29 08:23:27;;;;;;;7.35;4.50;;;16.60;58.20;;;;;;5053796;28;20086;-69
2022/04/29 08:25:52;;;;;;;9.32;4.80;;;16.00;58.50;;;;;;5050982;28;20360;-68
2022/04/29 08:28:18;;;;;;;6.72;4.30;;;15.70;59.00;;;;;;5054480;28;20103;-67
2022/04/29 08:30:45;;;;;;;6.80;4.13;;;16.30;58.90;;;;;;5052290;28;20029;-68
2022/04/29 08:33:13;;;;;;;7.45;4.78;;;17.30;57.70;;;;;;5054034;28;20021;-68
2022/04/29 08:35:39;;;;;;;8.05;4.20;;;18.00;56.20;;;;;;5058209;28;20036;-68
2022/04/29 08:38:09;;;;;;;6.30;3.80;;;18.50;55.70;;;;;;5057899;28;20036;-68
2022/04/29 08:40:45;;;;;;;7.65;4.50;;;18.60;55.20;;;;;;5057683;28;20339;-66
2022/04/29 08:43:14;;;;;;;8.38;4.13;;;18.30;55.40;;;;;;5059988;28;20439;-68
2022/04/29 08:45:40;;;;;;;6.38;4.00;;;18.10;56.10;;;;;;5057288;28;20111;-66
2022/04/29 08:48:07;;;;;;;7.65;3.70;;;18.00;54.70;;;;;;5040265;28;20460;-68
2022/04/29 08:50:33;;;;;;;8.57;3.53;;;18.10;56.00;;;;;;5059178;28;20333;-68
2022/04/29 08:52:59;;;;;;;6.97;4.13;;;18.50;55.90;;;;;;5057951;28;20414;-68
2022/04/29 09:01:02;;;;;;;6.75;3.83;;;18.10;55.50;;;;;;5056571;28;20387;-66
2022/04/29 09:03:29;;;;;;;7.78;3.88;;;18.50;53.40;;;;;;5056942;28;20033;-66
2022/04/29 09:05:55;;;;;;;4.95;3.22;;;18.50;54.40;;;;;;5056178;28;20329;-66
2022/04/29 09:08:25;;;;;;;6.35;3.30;;;18.40;55.10;;;;;;5057003;28;20029;-67
2022/04/29 09:10:56;;;;;;;9.48;3.75;;;18.50;56.10;;;;;;5056624;28;20430;-67
2022/04/29 09:13:35;;;;;;;5.38;3.33;;;18.00;52.90;;;;;;5057037;28;20033;-67
2022/04/29 09:16:19;;;;;;;5.22;3.40;;;17.80;55.60;;;;;;5051579;28;20021;-67
2022/04/29 09:18:53;;;;;;;6.80;3.65;;;17.60;54.70;;;;;;5054428;28;20024;-68
2022/04/29 09:21:32;;;;;;;6.53;3.67;;;17.60;54.70;;;;;;5055450;28;20048;-69
2022/04/29 09:24:05;;;;;;;7.07;3.78;;;17.70;56.90;;;;;;5040777;28;20078;-68
2022/04/29 09:26:35;;;;;;;6.57;3.85;;;18.30;54.60;;;;;;5057849;28;20029;-68
2022/04/29 09:29:15;;;;;;;8.13;4.03;;;18.80;55.80;;;;;;5037044;28;20025;-68
2022/04/29 09:32:01;;;;;;;5.32;3.60;;;19.80;53.30;;;;;;5053866;28;20064;-69
2022/04/29 09:34:47;;;;;;;7.10;3.75;;;20.00;52.50;;;;;;5051216;28;20063;-68
2022/04/29 09:37:19;;;;;;;9.80;4.40;;;20.80;51.80;;;;;;5055980;28;20021;-68
2022/04/29 09:40:00;;;;;;;5.38;3.40;;;20.70;50.50;;;;;;5051341;28;20104;-67
2022/04/29 09:42:39;;;;;;;8.73;4.45;;;21.10;53.00;;;;;;5055138;28;20436;-69
2022/04/29 09:45:21;;;;;;;8.77;3.90;;;21.20;48.50;;;;;;5055393;28;20021;-68
2022/04/29 09:47:53;;;;;;;7.57;3.55;;;21.60;50.10;;;;;;5056783;28;20029;-69
2022/04/29 09:50:22;;;;;;;6.43;4.13;;;21.70;49.40;;;;;;5054480;28;20040;-68
2022/04/29 09:52:49;;;;;;;6.80;3.53;;;21.50;47.90;;;;;;5057419;28;20021;-68
2022/04/29 09:55:22;;;;;;;5.90;3.67;;;21.70;49.50;;;;;;5057459;28;20245;-68
2022/04/29 09:57:56;;;;;;;12.80;4.07;;;21.50;47.80;;;;;;5058185;28;20021;-69
2022/04/29 10:00:25;;;;;;;6.45;3.80;;;20.90;48.20;;;;;;5057002;28;20079;-68
2022/04/29 10:02:52;;;;;;;6.63;3.80;;;20.90;49.00;;;;;;5057575;28;20381;-69
2022/04/29 10:05:17;;;;;;;8.20;4.15;;;20.80;48.80;;;;;;5056373;28;20036;-68
2022/04/29 10:07:52;;;;;;;7.53;3.60;;;20.30;49.60;;;;;;5054858;28;20703;-67
2022/04/29 10:10:30;;;;;;;7.47;4.10;;;20.00;50.20;;;;;;5056476;28;20437;-67
2022/04/29 10:13:07;;;;;;;6.20;4.18;;;19.90;50.30;;;;;;5038038;28;20052;-67
2022/04/29 10:15:35;;;;;;;5.30;3.75;;;19.80;51.00;;;;;;5037001;28;20029;-69
2022/04/29 10:23:48;;;;;;;7.80;4.50;;;18.80;51.20;;;;;;5056478;28;20310;-67
2022/04/29 10:26:17;;;;;;;7.78;4.50;;;19.10;51.30;;;;;;5029369;28;20033;-68
2022/04/29 10:28:44;;;;;;;8.65;4.15;;;19.30;52.30;;;;;;5046914;28;20025;-68
2022/04/29 10:31:16;;;;;;;6.15;3.55;;;19.30;51.10;;;;;;5029312;28;20028;-68
2022/04/29 10:33:42;;;;;;;6.90;3.65;;;19.80;52.90;;;;;;5055487;28;20040;-68
2022/04/29 10:36:09;;;;;;;5.90;3.75;;;19.90;52.30;;;;;;5057187;28;20021;-69
2022/04/29 10:38:39;;;;;;;8.18;3.65;;;19.90;50.30;;;;;;5055657;28;20017;-68
2022/04/29 10:41:24;;;;;;;6.50;4.20;;;19.70;53.50;;;;;;5038443;28;20025;-69
2022/04/29 10:43:50;;;;;;;6.07;4.22;;;20.10;51.70;;;;;;5046986;28;20322;-68
2022/04/29 10:46:31;;;;;;;6.80;4.07;;;20.00;52.40;;;;;;5019446;28;20033;-69
2022/04/29 10:48:57;;;;;;;9.90;4.22;;;19.90;52.60;;;;;;5047376;28;20055;-69
2022/04/29 10:51:25;;;;;;;7.47;4.10;;;19.70;54.80;;;;;;5055527;28;20025;-68
2022/04/29 10:53:56;;;;;;;8.20;4.63;;;20.00;54.00;;;;;;5056315;28;20068;-68
2022/04/29 10:56:36;;;;;;;8.40;4.75;;;20.50;52.90;;;;;;5055229;28;20025;-69
2022/04/29 10:59:04;;;;;;;7.53;4.43;;;20.70;53.30;;;;;;5053082;28;20099;-69
2022/04/29 11:01:33;;;;;;;7.15;4.20;;;20.60;50.70;;;;;;5020676;28;20025;-69
2022/04/29 11:04:00;;;;;;;5.90;3.97;;;20.30;53.30;;;;;;5054747;28;20166;-68
2022/04/29 11:06:40;;;;;;;8.02;5.07;;;20.00;54.20;;;;;;5054657;28;20029;-68
2022/04/29 11:09:31;;;;;;;10.18;6.13;;;20.40;53.40;;;;;;5054909;28;20283;-68
2022/04/29 11:12:00;;;;;;;8.73;5.10;;;20.80;52.90;;;;;;5036484;28;20036;-68
2022/04/29 11:14:26;;;;;;;8.80;6.18;;;20.90;52.00;;;;;;5035967;28;20044;-69
2022/04/29 11:17:06;;;;;;;7.95;5.38;;;21.10;52.40;;;;;;5056367;28;20494;-69
2022/04/29 11:19:40;;;;;;;8.68;5.35;;;21.10;52.00;;;;;;5036739;28;20112;-69
2022/04/29 11:24:52;;;;;;;9.63;5.43;;;21.60;50.70;;;;;;5056582;28;20082;-68
2022/04/29 11:27:30;;;;;;;6.50;4.35;;;21.90;51.70;;;;;;5056529;28;20045;-69
2022/04/29 11:30:01;;;;;;;8.68;4.93;;;22.60;51.30;;;;;;5053438;28;20086;-69
2022/04/29 11:32:27;;;;;;;6.75;4.70;;;23.30;50.10;;;;;;5056272;28;20025;-69
2022/04/29 11:34:58;;;;;;;9.77;5.13;;;23.30;49.50;;;;;;5055651;28;20360;-69
2022/04/29 11:37:25;;;;;;;6.88;4.80;;;22.80;50.30;;;;;;5055415;28;20021;-68
2022/04/29 11:40:00;;;;;;;10.45;5.57;;;22.30;50.30;;;;;;5038510;28;20024;-68
2022/04/29 11:42:27;;;;;;;8.23;5.50;;;22.10;51.00;;;;;;5049679;28;20331;-68
2022/04/29 11:44:53;;;;;;;8.35;5.43;;;21.90;51.60;;;;;;5036381;28;20024;-68
2022/04/29 11:47:26;;;;;;;8.20;5.57;;;22.40;52.60;;;;;;5054077;28;20040;-67
2022/04/29 11:49:54;;;;;;;6.40;4.50;;;22.50;50.00;;;;;;5041063;28;20040;-68
2022/04/29 11:52:20;;;;;;;7.45;4.68;;;22.20;50.90;;;;;;5037988;28;20035;-67
2022/04/29 11:55:12;;;;;;;8.88;4.30;;;21.80;48.20;;;;;;5055749;28;20357;-67
2022/04/29 11:57:46;;;;;;;5.43;4.05;;;21.20;52.30;;;;;;5055828;28;20028;-68
2022/04/29 12:00:24;;;;;;;7.57;4.05;;;20.70;50.30;;;;;;5053478;28;20041;-67
2022/04/29 12:02:50;;;;;;;5.32;3.72;;;20.20;51.60;;;;;;5037551;28;20116;-67
2022/04/29 12:05:16;;;;;;;6.78;3.65;;;20.30;52.90;;;;;;5055530;28;20100;-69
2022/04/29 12:07:44;;;;;;;7.60;4.80;;;21.00;51.80;;;;;;5055082;28;20036;-67
2022/04/29 12:10:28;;;;;;;6.55;3.67;;;21.20;49.40;;;;;;5054281;28;20059;-68
2022/04/29 12:12:58;;;;;;;6.78;3.85;;;21.40;49.50;;;;;;5049820;28;20138;-69
2022/04/29 12:15:32;;;;;;;8.90;4.20;;;21.80;49.10;;;;;;5053205;28;20024;-69
2022/04/29 12:18:01;;;;;;;7.20;3.70;;;22.10;49.30;;;;;;5037303;28;20103;-70
2022/04/29 12:20:28;;;;;;;5.35;3.63;;;22.50;50.80;;;;;;5055378;28;20055;-68
2022/04/29 12:22:54;;;;;;;6.72;4.28;;;22.50;48.20;;;;;;5054714;28;20116;-67
2022/04/29 12:25:21;;;;;;;8.48;4.10;;;22.60;47.60;;;;;;5054246;28;20095;-68
2022/04/29 12:28:28;;;;;;;7.97;4.45;;;22.40;48.20;;;;;;5050117;28;20025;-69
2022/04/29 12:37:10;;;;;;;6.88;3.92;;;23.60;49.20;;;;;;5051295;28;20112;-68
2022/04/29 12:39:38;;;;;;;5.90;3.70;;;23.90;46.10;;;;;;5054409;28;20048;-68
2022/04/29 12:42:06;;;;;;;6.75;3.67;;;23.90;46.80;;;;;;5054903;28;20036;-68
2022/04/29 12:47:34;;;;;;;6.05;4.20;;;23.20;46.20;;;;;;5053833;28;20459;-69
2022/04/29 12:50:19;;;;;;;6.43;3.70;;;22.40;47.30;;;;;;5054533;28;20029;-69
2022/04/29 12:53:00;;;;;;;7.45;3.55;;;22.60;46.10;;;;;;5052989;28;20423;-69
2022/04/29 12:55:28;;;;;;;7.18;4.07;;;22.90;46.40;;;;;;5054801;28;20021;-68
2022/04/29 12:58:18;;;;;;;7.50;3.95;;;23.10;48.90;;;;;;5049652;28;20029;-68
2022/04/29 13:00:48;;;;;;;7.22;4.22;;;23.10;48.10;;;;;;5028882;28;20045;-68
2022/04/29 13:03:18;;;;;;;6.68;4.10;;;22.90;49.00;;;;;;5032396;28;20067;-69
2022/04/29 13:05:43;;;;;;;7.55;4.10;;;22.90;48.10;;;;;;5031643;28;20426;-68
2022/04/29 13:08:09;;;;;;;8.68;4.35;;;22.50;47.50;;;;;;5033320;28;20025;-68
2022/04/29 13:10:47;;;;;;;6.10;3.95;;;22.10;48.60;;;;;;5015335;28;20438;-69
2022/04/29 13:13:13;;;;;;;7.05;3.55;;;22.50;51.20;;;;;;5034282;28;20030;-69
2022/04/29 13:15:43;;;;;;;6.05;4.22;;;23.10;50.10;;;;;;5015749;28;20415;-68
2022/04/29 13:18:10;;;;;;;6.20;4.50;;;23.20;50.00;;;;;;5034746;28;20018;-69
2022/04/29 13:20:36;;;;;;;7.22;4.07;;;23.60;48.10;;;;;;5035365;28;20021;-68